ADDS METAR Data INFO
IDs: Format: Raw Decoded Include TAF

Data at: 1321 UTC 19 Jul 2018

KDTW 191253Z 18005KT 8SM FEW140 BKN250 22/14 A3009 RMK AO2 SLP187 T02220144
KDTW 191153Z 00000KT 8SM FEW140 BKN250 20/13 A3009 RMK AO2 SLP186 T02000128 10211 20167 51004
KDTW 191053Z 02004KT 8SM FEW140 SCT250 17/12 A3009 RMK AO2 SLP185 T01720122
KDTW 190953Z 00000KT 10SM FEW250 18/12 A3008 RMK AO2 SLP184 T01780117
KDTW 190853Z 00000KT 10SM FEW250 18/12 A3008 RMK AO2 SLP182 T01780122 51002
KDTW 190753Z 00000KT 10SM FEW250 18/13 A3008 RMK AO2 SLP182 T01830128
KDTW 190653Z 01003KT 10SM FEW250 19/13 A3008 RMK AO2 SLP181 T01890133
KDTW 190553Z 10003KT 10SM FEW250 20/13 A3007 RMK AO2 SLP180 T02000133 10250 20200 53002
KDTW 190453Z 07004KT 10SM FEW065 FEW250 21/13 A3007 RMK AO2 SLP178 T02110133 402830161
KDTW 190353Z 13003KT 10SM FEW065 FEW250 21/13 A3006 RMK AO2 SLP177 T02110133
KDTW 190253Z 12003KT 10SM FEW065 FEW250 22/13 A3007 RMK AO2 SLP178 T02170133 53008
KDTW 190153Z VRB03KT 10SM FEW065 FEW250 23/13 A3006 RMK AO2 SLP174 T02280133
KDTW 190053Z 15004KT 10SM SCT065 23/13 A3004 RMK AO2 SLP170 T02330128
KDTW 182353Z 14005KT 10SM FEW060 25/13 A3004 RMK AO2 SLP169 T02500133 10283 20250 56004
KDTW 182253Z 16009KT 10SM FEW060 26/13 A3004 RMK AO2 SLP170 T02610133
KDTW 182153Z 15007KT 10SM SCT060 27/13 A3004 RMK AO2 SLP170 T02720133
KDTW 182053Z VRB05KT 10SM SCT060 28/11 A3005 RMK AO2 SLP174 T02830111 58015
KDTW 181953Z VRB03KT 10SM SCT060 28/11 A3007 RMK AO2 SLP180 T02780111
KDTW 181853Z VRB04KT 10SM SCT060 27/11 A3008 RMK AO2 SLP184 T02720106
KDTW 181753Z VRB03KT 10SM BKN060 27/11 A3010 RMK AO2 SLP189 T02670106 10267 20189 58007
KDTW 181653Z 07004KT 10SM SCT050 26/12 A3011 RMK AO2 SLP192 T02610117
KDTW 181553Z 05004KT 10SM SCT045 25/11 A3012 RMK AO2 SLP196 T02500111
KDTW 181453Z 35008KT 10SM FEW030 24/13 A3012 RMK AO2 SLP196 T02440128 58001
KDTW 181353Z 36005KT 10SM FEW030 FEW060 22/13 A3013 RMK AO2 SLP198 T02220133
KDTW 181253Z 01006KT 10SM FEW030 FEW060 21/13 A3013 RMK AO2 SLP199 T02060133
KDTW 181153Z 01006KT 10SM FEW200 19/13 A3012 RMK AO2 SLP197 T01890128 10194 20161 53013
KDTW 181053Z 01005KT 10SM FEW075 FEW200 17/13 A3011 RMK AO2 SLP192 T01720128
KDTW 180953Z 36005KT 10SM FEW180 16/13 A3010 RMK AO2 SLP188 T01610128
KDTW 180853Z 35004KT 10SM CLR 17/13 A3008 RMK AO2 SLP184 T01670128 52001
KDTW 180753Z 01005KT 10SM CLR 17/13 A3008 RMK AO2 SLP183 T01720128
KDTW 180653Z 02005KT 10SM CLR 18/12 A3008 RMK AO2 SLP184 T01780122
KDTW 180553Z 02006KT 10SM CLR 18/12 A3008 RMK AO2 SLP183 T01830117 10261 20183 51013
KDTW 180453Z 05006KT 10SM CLR 20/12 A3007 RMK AO2 SLP179 T02000122 402890183
KDTW 180353Z 06005KT 10SM CLR 21/13 A3006 RMK AO2 SLP176 T02110133
KDTW 180253Z 07004KT 10SM FEW075 22/13 A3004 RMK AO2 SLP169 T02220133 53016
KDTW 180153Z 36006KT 10SM FEW075 FEW250 23/11 A3002 RMK AO2 SLP161 T02330106